sensor_id;sensor_type;location;lat;lon;timestamp;temperature;humidity
16243;DHT22;11719;51.052;6.982;2022-11-24T00:01:13;12.20;99.90
16243;DHT22;11719;51.052;6.982;2022-11-24T00:03:41;12.10;99.90
16243;DHT22;11719;51.052;6.982;2022-11-24T00:06:10;12.00;99.90
16243;DHT22;11719;51.052;6.982;2022-11-24T00:08:38;11.80;99.90
16243;DHT22;11719;51.052;6.982;2022-11-24T00:11:14;11.70;99.90
16243;DHT22;11719;51.052;6.982;2022-11-24T00:13:41;11.60;99.90
16243;DHT22;11719;51.052;6.982;2022-11-24T00:18:41;11.60;99.90
16243;DHT22;11719;51.052;6.982;2022-11-24T00:21:09;11.60;99.90
16243;DHT22;11719;51.052;6.982;2022-11-24T00:23:35;11.70;99.90
16243;DHT22;11719;51.052;6.982;2022-11-24T00:26:10;11.60;99.90
16243;DHT22;11719;51.052;6.982;2022-11-24T00:28:43;11.70;99.90
16243;DHT22;11719;51.052;6.982;2022-11-24T00:33:53;11.90;99.90
16243;DHT22;11719;51.052;6.982;2022-11-24T00:36:22;12.00;99.90
16243;DHT22;11719;51.052;6.982;2022-11-24T00:38:53;12.10;99.90
16243;DHT22;11719;51.052;6.982;2022-11-24T00:41:21;12.20;99.90
16243;DHT22;11719;51.052;6.982;2022-11-24T00:43:48;12.30;99.90
16243;DHT22;11719;51.052;6.982;2022-11-24T00:46:13;12.40;99.90
16243;DHT22;11719;51.052;6.982;2022-11-24T00:48:39;12.30;99.90
16243;DHT22;11719;51.052;6.982;2022-11-24T00:51:08;12.30;99.90
16243;DHT22;11719;51.052;6.982;2022-11-24T00:53:35;12.30;99.90
16243;DHT22;11719;51.052;6.982;2022-11-24T00:56:02;12.20;99.90
16243;DHT22;11719;51.052;6.982;2022-11-24T00:58:28;12.20;99.90
16243;DHT22;11719;51.052;6.982;2022-11-24T01:01:01;12.10;99.90
16243;DHT22;11719;51.052;6.982;2022-11-24T01:03:29;12.10;99.90
16243;DHT22;11719;51.052;6.982;2022-11-24T01:05:55;12.10;99.90
16243;DHT22;11719;51.052;6.982;2022-11-24T01:08:20;12.20;99.90
16243;DHT22;11719;51.052;6.982;2022-11-24T01:10:46;12.10;99.90
16243;DHT22;11719;51.052;6.982;2022-11-24T01:13:12;12.10;99.90
16243;DHT22;11719;51.052;6.982;2022-11-24T01:15:38;12.10;99.90
16243;DHT22;11719;51.052;6.982;2022-11-24T01:18:04;12.10;99.90
16243;DHT22;11719;51.052;6.982;2022-11-24T01:20:31;12.00;99.90
16243;DHT22;11719;51.052;6.982;2022-11-24T01:22:57;12.00;99.90
16243;DHT22;11719;51.052;6.982;2022-11-24T01:25:23;11.90;99.90
16243;DHT22;11719;51.052;6.982;2022-11-24T01:27:49;12.00;99.90
16243;DHT22;11719;51.052;6.982;2022-11-24T01:30:15;12.00;99.90
16243;DHT22;11719;51.052;6.982;2022-11-24T01:32:41;12.10;99.90
16243;DHT22;11719;51.052;6.982;2022-11-24T01:35:07;12.10;99.90
16243;DHT22;11719;51.052;6.982;2022-11-24T01:37:33;12.20;99.90
16243;DHT22;11719;51.052;6.982;2022-11-24T01:39:59;12.20;99.90
16243;DHT22;11719;51.052;6.982;2022-11-24T01:42:25;12.20;99.90
16243;DHT22;11719;51.052;6.982;2022-11-24T01:45:44;12.20;99.90
16243;DHT22;11719;51.052;6.982;2022-11-24T01:48:20;12.30;99.90
16243;DHT22;11719;51.052;6.982;2022-11-24T01:50:52;12.20;99.90
16243;DHT22;11719;51.052;6.982;2022-11-24T01:53:29;12.20;99.90
16243;DHT22;11719;51.052;6.982;2022-11-24T01:55:55;12.20;99.90
16243;DHT22;11719;51.052;6.982;2022-11-24T01:58:24;12.20;99.90
16243;DHT22;11719;51.052;6.982;2022-11-24T02:00:52;12.20;99.90
16243;DHT22;11719;51.052;6.982;2022-11-24T02:03:24;12.10;99.90
16243;DHT22;11719;51.052;6.982;2022-11-24T02:06:03;12.10;99.90
16243;DHT22;11719;51.052;6.982;2022-11-24T02:09:02;12.20;99.90
16243;DHT22;11719;51.052;6.982;2022-11-24T02:11:36;12.20;99.90
16243;DHT22;11719;51.052;6.982;2022-11-24T02:14:09;12.20;99.90
16243;DHT22;11719;51.052;6.982;2022-11-24T02:16:38;12.20;99.90
16243;DHT22;11719;51.052;6.982;2022-11-24T02:19:17;12.20;99.90
16243;DHT22;11719;51.052;6.982;2022-11-24T02:21:52;12.20;99.90
16243;DHT22;11719;51.052;6.982;2022-11-24T02:24:30;12.30;99.90
16243;DHT22;11719;51.052;6.982;2022-11-24T02:27:02;12.40;99.90
16243;DHT22;11719;51.052;6.982;2022-11-24T02:29:28;12.40;99.90
16243;DHT22;11719;51.052;6.982;2022-11-24T02:32:00;12.40;99.90
16243;DHT22;11719;51.052;6.982;2022-11-24T02:34:27;12.50;99.90
16243;DHT22;11719;51.052;6.982;2022-11-24T02:36:53;12.50;99.90
16243;DHT22;11719;51.052;6.982;2022-11-24T02:39:19;12.50;99.90
16243;DHT22;11719;51.052;6.982;2022-11-24T02:41:51;12.50;99.90
16243;DHT22;11719;51.052;6.982;2022-11-24T02:44:21;12.60;99.90
16243;DHT22;11719;51.052;6.982;2022-11-24T02:46:59;12.60;99.90
16243;DHT22;11719;51.052;6.982;2022-11-24T02:49:26;12.60;99.90
16243;DHT22;11719;51.052;6.982;2022-11-24T02:51:52;12.70;99.90
16243;DHT22;11719;51.052;6.982;2022-11-24T02:54:18;12.70;99.90
16243;DHT22;11719;51.052;6.982;2022-11-24T02:56:44;12.70;99.90
16243;DHT22;11719;51.052;6.982;2022-11-24T02:59:10;12.80;99.90
16243;DHT22;11719;51.052;6.982;2022-11-24T03:01:35;12.80;99.90
16243;DHT22;11719;51.052;6.982;2022-11-24T03:04:01;12.80;99.90
16243;DHT22;11719;51.052;6.982;2022-11-24T03:06:27;12.70;99.90
16243;DHT22;11719;51.052;6.982;2022-11-24T03:08:53;12.70;99.90
16243;DHT22;11719;51.052;6.982;2022-11-24T03:11:19;12.70;99.90
16243;DHT22;11719;51.052;6.982;2022-11-24T03:13:44;12.70;99.90
16243;DHT22;11719;51.052;6.982;2022-11-24T03:16:10;12.60;99.90
16243;DHT22;11719;51.052;6.982;2022-11-24T03:18:36;12.60;99.90
16243;DHT22;11719;51.052;6.982;2022-11-24T03:21:02;12.60;99.90
16243;DHT22;11719;51.052;6.982;2022-11-24T03:23:28;12.50;99.90
16243;DHT22;11719;51.052;6.982;2022-11-24T03:25:54;12.50;99.90
16243;DHT22;11719;51.052;6.982;2022-11-24T03:28:19;12.50;99.90
16243;DHT22;11719;51.052;6.982;2022-11-24T03:30:47;12.50;99.90
16243;DHT22;11719;51.052;6.982;2022-11-24T03:33:13;12.40;99.90
16243;DHT22;11719;51.052;6.982;2022-11-24T03:35:39;12.40;99.90
16243;DHT22;11719;51.052;6.982;2022-11-24T03:38:05;12.40;99.90
16243;DHT22;11719;51.052;6.982;2022-11-24T03:40:30;12.40;99.90
16243;DHT22;11719;51.052;6.982;2022-11-24T03:42:56;12.50;99.90
16243;DHT22;11719;51.052;6.982;2022-11-24T03:45:22;12.50;99.90
16243;DHT22;11719;51.052;6.982;2022-11-24T03:47:51;12.50;99.90
16243;DHT22;11719;51.052;6.982;2022-11-24T03:50:16;12.50;99.90
16243;DHT22;11719;51.052;6.982;2022-11-24T03:52:42;12.50;99.90
16243;DHT22;11719;51.052;6.982;2022-11-24T03:55:08;12.60;99.90
16243;DHT22;11719;51.052;6.982;2022-11-24T03:57:34;12.60;99.90
16243;DHT22;11719;51.052;6.982;2022-11-24T04:00:00;12.60;99.90
16243;DHT22;11719;51.052;6.982;2022-11-24T04:02:25;12.50;99.90
16243;DHT22;11719;51.052;6.982;2022-11-24T04:04:51;12.50;99.90
16243;DHT22;11719;51.052;6.982;2022-11-24T04:07:17;12.50;99.90
16243;DHT22;11719;51.052;6.982;2022-11-24T04:09:44;12.50;99.90
16243;DHT22;11719;51.052;6.982;2022-11-24T04:12:09;12.50;99.90
16243;DHT22;11719;51.052;6.982;2022-11-24T04:14:54;12.50;99.90
16243;DHT22;11719;51.052;6.982;2022-11-24T04:17:19;12.50;99.90
16243;DHT22;11719;51.052;6.982;2022-11-24T04:19:45;12.60;99.90
16243;DHT22;11719;51.052;6.982;2022-11-24T04:22:11;12.50;99.90
16243;DHT22;11719;51.052;6.982;2022-11-24T04:24:37;12.50;99.90
16243;DHT22;11719;51.052;6.982;2022-11-24T04:27:02;12.60;99.90
16243;DHT22;11719;51.052;6.982;2022-11-24T04:29:28;12.60;99.90
16243;DHT22;11719;51.052;6.982;2022-11-24T04:31:54;12.60;99.90
16243;DHT22;11719;51.052;6.982;2022-11-24T04:34:20;12.70;99.90
16243;DHT22;11719;51.052;6.982;2022-11-24T04:36:45;12.70;99.90
16243;DHT22;11719;51.052;6.982;2022-11-24T04:39:11;12.70;99.90
16243;DHT22;11719;51.052;6.982;2022-11-24T04:41:37;12.80;99.90
16243;DHT22;11719;51.052;6.982;2022-11-24T04:44:03;12.80;99.90
16243;DHT22;11719;51.052;6.982;2022-11-24T04:46:28;12.90;99.90
16243;DHT22;11719;51.052;6.982;2022-11-24T04:48:54;13.00;99.90
16243;DHT22;11719;51.052;6.982;2022-11-24T04:51:20;13.00;99.90
16243;DHT22;11719;51.052;6.982;2022-11-24T04:53:47;13.00;99.90
16243;DHT22;11719;51.052;6.982;2022-11-24T04:56:13;13.00;99.90
16243;DHT22;11719;51.052;6.982;2022-11-24T04:58:39;13.00;99.90
16243;DHT22;11719;51.052;6.982;2022-11-24T05:01:06;13.00;99.90
16243;DHT22;11719;51.052;6.982;2022-11-24T05:03:33;13.00;99.90
16243;DHT22;11719;51.052;6.982;2022-11-24T05:06:00;13.00;99.90
16243;DHT22;11719;51.052;6.982;2022-11-24T05:08:26;13.00;99.90
16243;DHT22;11719;51.052;6.982;2022-11-24T05:10:51;12.90;99.90
16243;DHT22;11719;51.052;6.982;2022-11-24T05:13:17;12.90;99.90
16243;DHT22;11719;51.052;6.982;2022-11-24T05:15:43;13.00;99.90
16243;DHT22;11719;51.052;6.982;2022-11-24T05:18:11;13.00;99.90
16243;DHT22;11719;51.052;6.982;2022-11-24T05:20:39;13.00;99.90
16243;DHT22;11719;51.052;6.982;2022-11-24T05:23:07;12.90;99.90
16243;DHT22;11719;51.052;6.982;2022-11-24T05:25:33;12.90;99.90
16243;DHT22;11719;51.052;6.982;2022-11-24T05:28:04;12.90;99.90
16243;DHT22;11719;51.052;6.982;2022-11-24T05:30:38;12.80;99.90
16243;DHT22;11719;51.052;6.982;2022-11-24T05:33:06;12.80;99.90
16243;DHT22;11719;51.052;6.982;2022-11-24T05:35:34;12.80;99.90
16243;DHT22;11719;51.052;6.982;2022-11-24T05:38:01;12.70;99.90
16243;DHT22;11719;51.052;6.982;2022-11-24T05:40:29;12.60;99.90
16243;DHT22;11719;51.052;6.982;2022-11-24T05:42:55;12.60;99.90
16243;DHT22;11719;51.052;6.982;2022-11-24T05:45:21;12.60;99.90
16243;DHT22;11719;51.052;6.982;2022-11-24T05:47:48;12.60;99.90
16243;DHT22;11719;51.052;6.982;2022-11-24T05:50:17;12.60;99.90
16243;DHT22;11719;51.052;6.982;2022-11-24T05:52:43;12.50;99.90
16243;DHT22;11719;51.052;6.982;2022-11-24T05:55:10;12.60;99.90
16243;DHT22;11719;51.052;6.982;2022-11-24T05:57:36;12.60;99.90
16243;DHT22;11719;51.052;6.982;2022-11-24T06:00:04;12.60;99.90
16243;DHT22;11719;51.052;6.982;2022-11-24T06:02:31;12.70;99.90
16243;DHT22;11719;51.052;6.982;2022-11-24T06:04:57;12.70;99.90
16243;DHT22;11719;51.052;6.982;2022-11-24T06:07:22;12.90;99.90
16243;DHT22;11719;51.052;6.982;2022-11-24T06:09:49;12.90;99.90
16243;DHT22;11719;51.052;6.982;2022-11-24T06:12:14;13.00;99.90
16243;DHT22;11719;51.052;6.982;2022-11-24T06:14:40;13.00;99.90
16243;DHT22;11719;51.052;6.982;2022-11-24T06:17:11;13.10;99.90
16243;DHT22;11719;51.052;6.982;2022-11-24T06:19:37;13.10;99.90
16243;DHT22;11719;51.052;6.982;2022-11-24T06:22:03;13.20;99.90
16243;DHT22;11719;51.052;6.982;2022-11-24T06:24:29;13.20;99.90
16243;DHT22;11719;51.052;6.982;2022-11-24T06:26:55;13.20;99.90
16243;DHT22;11719;51.052;6.982;2022-11-24T06:29:20;13.20;99.90
16243;DHT22;11719;51.052;6.982;2022-11-24T06:31:46;13.20;99.90
16243;DHT22;11719;51.052;6.982;2022-11-24T06:34:12;13.20;99.90
16243;DHT22;11719;51.052;6.982;2022-11-24T06:36:38;13.20;99.90
16243;DHT22;11719;51.052;6.982;2022-11-24T06:39:05;13.30;99.90
16243;DHT22;11719;51.052;6.982;2022-11-24T06:41:31;13.40;99.90
16243;DHT22;11719;51.052;6.982;2022-11-24T06:43:57;13.40;99.90
16243;DHT22;11719;51.052;6.982;2022-11-24T06:46:23;13.40;99.90
16243;DHT22;11719;51.052;6.982;2022-11-24T06:48:52;13.40;99.90
16243;DHT22;11719;51.052;6.982;2022-11-24T06:51:18;13.40;99.90
16243;DHT22;11719;51.052;6.982;2022-11-24T06:53:44;13.40;99.90
16243;DHT22;11719;51.052;6.982;2022-11-24T06:56:13;13.40;99.90
16243;DHT22;11719;51.052;6.982;2022-11-24T06:58:46;13.40;99.90
16243;DHT22;11719;51.052;6.982;2022-11-24T07:01:18;13.40;99.90
16243;DHT22;11719;51.052;6.982;2022-11-24T07:03:48;13.30;99.90
16243;DHT22;11719;51.052;6.982;2022-11-24T07:06:15;13.30;99.90
16243;DHT22;11719;51.052;6.982;2022-11-24T07:08:41;13.30;99.90
16243;DHT22;11719;51.052;6.982;2022-11-24T07:11:10;13.20;99.90
16243;DHT22;11719;51.052;6.982;2022-11-24T07:13:37;13.20;99.90
16243;DHT22;11719;51.052;6.982;2022-11-24T07:16:33;13.20;99.90
16243;DHT22;11719;51.052;6.982;2022-11-24T07:18:59;13.00;99.90
16243;DHT22;11719;51.052;6.982;2022-11-24T07:21:26;13.00;99.90
16243;DHT22;11719;51.052;6.982;2022-11-24T07:23:54;13.10;99.90
16243;DHT22;11719;51.052;6.982;2022-11-24T07:26:23;13.00;99.90
16243;DHT22;11719;51.052;6.982;2022-11-24T07:28:49;13.00;99.90
16243;DHT22;11719;51.052;6.982;2022-11-24T07:31:18;12.90;99.90
16243;DHT22;11719;51.052;6.982;2022-11-24T07:33:49;13.00;99.90
16243;DHT22;11719;51.052;6.982;2022-11-24T07:36:16;13.10;99.90
16243;DHT22;11719;51.052;6.982;2022-11-24T07:38:42;13.00;99.90
16243;DHT22;11719;51.052;6.982;2022-11-24T07:41:10;13.00;99.90
16243;DHT22;11719;51.052;6.982;2022-11-24T07:43:37;13.00;99.90
16243;DHT22;11719;51.052;6.982;2022-11-24T07:46:05;13.10;99.90
16243;DHT22;11719;51.052;6.982;2022-11-24T07:48:33;13.20;99.90
16243;DHT22;11719;51.052;6.982;2022-11-24T07:50:59;13.10;99.90
16243;DHT22;11719;51.052;6.982;2022-11-24T07:53:27;13.10;99.90
16243;DHT22;11719;51.052;6.982;2022-11-24T07:55:56;13.10;99.90
16243;DHT22;11719;51.052;6.982;2022-11-24T07:58:32;13.10;99.90
16243;DHT22;11719;51.052;6.982;2022-11-24T08:00:59;13.10;99.90
16243;DHT22;11719;51.052;6.982;2022-11-24T08:03:34;13.10;99.90
16243;DHT22;11719;51.052;6.982;2022-11-24T08:06:00;13.10;99.90
16243;DHT22;11719;51.052;6.982;2022-11-24T08:08:26;13.00;99.90
16243;DHT22;11719;51.052;6.982;2022-11-24T08:10:51;13.10;99.90
16243;DHT22;11719;51.052;6.982;2022-11-24T08:13:18;13.10;99.90
16243;DHT22;11719;51.052;6.982;2022-11-24T08:15:44;13.10;99.90
16243;DHT22;11719;51.052;6.982;2022-11-24T08:18:10;13.10;99.90
16243;DHT22;11719;51.052;6.982;2022-11-24T08:20:36;13.20;99.90
16243;DHT22;11719;51.052;6.982;2022-11-24T08:23:02;13.30;99.90
16243;DHT22;11719;51.052;6.982;2022-11-24T08:25:28;13.40;99.90
16243;DHT22;11719;51.052;6.982;2022-11-24T08:28:02;13.50;99.90
16243;DHT22;11719;51.052;6.982;2022-11-24T08:30:29;13.40;99.90
16243;DHT22;11719;51.052;6.982;2022-11-24T08:32:57;13.20;99.90
16243;DHT22;11719;51.052;6.982;2022-11-24T08:35:24;13.20;99.90
16243;DHT22;11719;51.052;6.982;2022-11-24T08:37:49;13.30;99.90
16243;DHT22;11719;51.052;6.982;2022-11-24T08:40:16;13.40;99.90
16243;DHT22;11719;51.052;6.982;2022-11-24T08:42:41;13.30;99.90
16243;DHT22;11719;51.052;6.982;2022-11-24T08:45:07;13.40;99.90
16243;DHT22;11719;51.052;6.982;2022-11-24T08:47:33;13.40;99.90
16243;DHT22;11719;51.052;6.982;2022-11-24T08:49:59;13.50;99.90
16243;DHT22;11719;51.052;6.982;2022-11-24T08:52:25;13.50;99.90
16243;DHT22;11719;51.052;6.982;2022-11-24T08:54:51;13.50;99.90
16243;DHT22;11719;51.052;6.982;2022-11-24T08:57:16;13.50;99.90
16243;DHT22;11719;51.052;6.982;2022-11-24T08:59:42;13.60;99.90
16243;DHT22;11719;51.052;6.982;2022-11-24T09:02:12;13.50;99.90
16243;DHT22;11719;51.052;6.982;2022-11-24T09:04:38;13.50;99.90
16243;DHT22;11719;51.052;6.982;2022-11-24T09:07:04;13.80;99.90
16243;DHT22;11719;51.052;6.982;2022-11-24T09:09:30;14.10;99.90
16243;DHT22;11719;51.052;6.982;2022-11-24T09:11:56;14.00;99.90
16243;DHT22;11719;51.052;6.982;2022-11-24T09:14:22;13.90;99.90
16243;DHT22;11719;51.052;6.982;2022-11-24T09:16:47;13.90;99.90
16243;DHT22;11719;51.052;6.982;2022-11-24T09:19:13;14.10;99.90
16243;DHT22;11719;51.052;6.982;2022-11-24T09:21:39;14.00;99.90
16243;DHT22;11719;51.052;6.982;2022-11-24T09:24:06;13.90;99.90
16243;DHT22;11719;51.052;6.982;2022-11-24T09:26:34;13.90;99.90
16243;DHT22;11719;51.052;6.982;2022-11-24T09:29:03;14.30;99.90
16243;DHT22;11719;51.052;6.982;2022-11-24T09:31:31;14.40;99.90
16243;DHT22;11719;51.052;6.982;2022-11-24T09:33:59;14.70;99.90
16243;DHT22;11719;51.052;6.982;2022-11-24T09:36:25;14.60;99.90
16243;DHT22;11719;51.052;6.982;2022-11-24T09:38:52;15.10;99.90
16243;DHT22;11719;51.052;6.982;2022-11-24T09:41:53;15.20;99.90
16243;DHT22;11719;51.052;6.982;2022-11-24T09:47:43;15.40;99.90
16243;DHT22;11719;51.052;6.982;2022-11-24T09:50:22;15.30;99.90
16243;DHT22;11719;51.052;6.982;2022-11-24T09:56:21;15.30;99.90
16243;DHT22;11719;51.052;6.982;2022-11-24T09:59:05;15.60;99.90
16243;DHT22;11719;51.052;6.982;2022-11-24T10:01:42;15.30;99.90
16243;DHT22;11719;51.052;6.982;2022-11-24T10:04:26;15.50;99.90
16243;DHT22;11719;51.052;6.982;2022-11-24T10:07:19;15.60;99.90
16243;DHT22;11719;51.052;6.982;2022-11-24T10:10:08;15.80;99.90
16243;DHT22;11719;51.052;6.982;2022-11-24T10:24:51;16.10;99.90
16243;DHT22;11719;51.052;6.982;2022-11-24T10:27:42;16.00;99.90
16243;DHT22;11719;51.052;6.982;2022-11-24T10:30:18;16.30;99.90
16243;DHT22;11719;51.052;6.982;2022-11-24T10:32:57;16.20;99.90
16243;DHT22;11719;51.052;6.982;2022-11-24T10:35:37;16.40;99.90
16243;DHT22;11719;51.052;6.982;2022-11-24T10:40:49;14.70;99.90
16243;DHT22;11719;51.052;6.982;2022-11-24T10:43:18;15.30;99.90
16243;DHT22;11719;51.052;6.982;2022-11-24T10:45:44;15.60;99.90
16243;DHT22;11719;51.052;6.982;2022-11-24T10:48:21;15.60;99.90
16243;DHT22;11719;51.052;6.982;2022-11-24T10:50:52;15.90;99.90
16243;DHT22;11719;51.052;6.982;2022-11-24T10:55:57;16.20;99.90
16243;DHT22;11719;51.052;6.982;2022-11-24T10:58:33;16.10;99.90
16243;DHT22;11719;51.052;6.982;2022-11-24T11:01:26;16.20;99.90
16243;DHT22;11719;51.052;6.982;2022-11-24T11:03:59;16.40;99.90
16243;DHT22;11719;51.052;6.982;2022-11-24T11:06:28;16.30;99.90
16243;DHT22;11719;51.052;6.982;2022-11-24T11:11:34;15.90;99.90
16243;DHT22;11719;51.052;6.982;2022-11-24T11:14:03;16.00;99.90
16243;DHT22;11719;51.052;6.982;2022-11-24T11:19:35;16.40;99.90
16243;DHT22;11719;51.052;6.982;2022-11-24T11:24:38;16.50;99.90
16243;DHT22;11719;51.052;6.982;2022-11-24T11:27:21;16.60;99.90
16243;DHT22;11719;51.052;6.982;2022-11-24T11:29:49;16.50;99.90
16243;DHT22;11719;51.052;6.982;2022-11-24T11:32:26;16.40;99.90
16243;DHT22;11719;51.052;6.982;2022-11-24T11:34:55;16.40;99.90
16243;DHT22;11719;51.052;6.982;2022-11-24T11:37:25;16.50;99.90
16243;DHT22;11719;51.052;6.982;2022-11-24T11:39:53;16.60;99.90
16243;DHT22;11719;51.052;6.982;2022-11-24T11:56:43;16.30;99.90
16243;DHT22;11719;51.052;6.982;2022-11-24T12:04:55;16.50;99.90
16243;DHT22;11719;51.052;6.982;2022-11-24T12:21:24;16.90;99.90
16243;DHT22;11719;51.052;6.982;2022-11-24T12:35:35;16.70;99.90
16243;DHT22;11719;51.052;6.982;2022-11-24T12:38:11;16.70;99.90
16243;DHT22;11719;51.052;6.982;2022-11-24T12:43:57;16.60;99.90
16243;DHT22;11719;51.052;6.982;2022-11-24T12:46:54;16.60;99.90
16243;DHT22;11719;51.052;6.982;2022-11-24T12:49:56;16.80;99.90
16243;DHT22;11719;51.052;6.982;2022-11-24T12:52:32;16.60;99.90
16243;DHT22;11719;51.052;6.982;2022-11-24T12:55:01;16.20;99.90
16243;DHT22;11719;51.052;6.982;2022-11-24T12:57:40;16.20;99.90
16243;DHT22;11719;51.052;6.982;2022-11-24T13:01:03;16.40;99.90
16243;DHT22;11719;51.052;6.982;2022-11-24T13:06:17;16.50;99.90
16243;DHT22;11719;51.052;6.982;2022-11-24T13:08:48;16.50;99.90
16243;DHT22;11719;51.052;6.982;2022-11-24T13:13:57;16.20;99.90
16243;DHT22;11719;51.052;6.982;2022-11-24T13:16:25;16.00;99.90
16243;DHT22;11719;51.052;6.982;2022-11-24T13:19:12;16.00;99.90
16243;DHT22;11719;51.052;6.982;2022-11-24T13:26:48;15.90;99.90
16243;DHT22;11719;51.052;6.982;2022-11-24T13:29:37;15.90;99.90
16243;DHT22;11719;51.052;6.982;2022-11-24T13:53:40;16.00;99.90
16243;DHT22;11719;51.052;6.982;2022-11-24T13:56:18;15.90;99.90
16243;DHT22;11719;51.052;6.982;2022-11-24T13:58:59;15.90;99.90
16243;DHT22;11719;51.052;6.982;2022-11-24T14:01:30;15.80;99.90
16243;DHT22;11719;51.052;6.982;2022-11-24T14:04:19;15.60;99.90
16243;DHT22;11719;51.052;6.982;2022-11-24T14:09:39;15.60;99.90
16243;DHT22;11719;51.052;6.982;2022-11-24T14:12:22;15.60;99.90
16243;DHT22;11719;51.052;6.982;2022-11-24T14:14:51;15.60;99.90
16243;DHT22;11719;51.052;6.982;2022-11-24T14:17:22;15.60;99.90
16243;DHT22;11719;51.052;6.982;2022-11-24T14:19:54;15.70;99.90
16243;DHT22;11719;51.052;6.982;2022-11-24T14:22:24;15.60;99.90
16243;DHT22;11719;51.052;6.982;2022-11-24T14:25:00;15.60;99.90
16243;DHT22;11719;51.052;6.982;2022-11-24T14:27:36;15.60;99.90
16243;DHT22;11719;51.052;6.982;2022-11-24T14:32:38;15.60;99.90
16243;DHT22;11719;51.052;6.982;2022-11-24T14:35:26;15.60;99.90
16243;DHT22;11719;51.052;6.982;2022-11-24T14:37:53;15.60;99.90
16243;DHT22;11719;51.052;6.982;2022-11-24T14:40:45;15.60;99.90
16243;DHT22;11719;51.052;6.982;2022-11-24T14:43:32;15.60;99.90
16243;DHT22;11719;51.052;6.982;2022-11-24T14:46:08;15.40;99.90
16243;DHT22;11719;51.052;6.982;2022-11-24T14:48:47;15.40;99.90
16243;DHT22;11719;51.052;6.982;2022-11-24T14:51:21;15.30;99.90
16243;DHT22;11719;51.052;6.982;2022-11-24T14:53:57;15.30;99.90
16243;DHT22;11719;51.052;6.982;2022-11-24T14:59:02;15.20;99.90
16243;DHT22;11719;51.052;6.982;2022-11-24T15:01:33;15.20;99.90
16243;DHT22;11719;51.052;6.982;2022-11-24T15:04:39;15.20;99.90
16243;DHT22;11719;51.052;6.982;2022-11-24T15:07:25;15.10;99.90
16243;DHT22;11719;51.052;6.982;2022-11-24T15:09:52;15.10;99.90
16243;DHT22;11719;51.052;6.982;2022-11-24T15:12:32;15.00;99.90
16243;DHT22;11719;51.052;6.982;2022-11-24T15:15:17;15.00;99.90
16243;DHT22;11719;51.052;6.982;2022-11-24T15:17:58;14.90;99.90
16243;DHT22;11719;51.052;6.982;2022-11-24T15:23:25;14.90;99.90
16243;DHT22;11719;51.052;6.982;2022-11-24T15:26:35;14.70;99.90
16243;DHT22;11719;51.052;6.982;2022-11-24T15:28:45;14.70;99.90
16243;DHT22;11719;51.052;6.982;2022-11-24T15:31:12;14.60;99.90
16243;DHT22;11719;51.052;6.982;2022-11-24T15:33:39;14.50;99.90
16243;DHT22;11719;51.052;6.982;2022-11-24T15:36:06;14.50;99.90
16243;DHT22;11719;51.052;6.982;2022-11-24T15:38:32;14.50;99.90
16243;DHT22;11719;51.052;6.982;2022-11-24T15:40:59;14.60;99.90
16243;DHT22;11719;51.052;6.982;2022-11-24T15:43:35;14.70;99.90
16243;DHT22;11719;51.052;6.982;2022-11-24T15:46:04;14.80;99.90
16243;DHT22;11719;51.052;6.982;2022-11-24T15:48:30;14.80;99.90
16243;DHT22;11719;51.052;6.982;2022-11-24T15:50:57;14.90;99.90
16243;DHT22;11719;51.052;6.982;2022-11-24T15:53:33;14.90;99.90
16243;DHT22;11719;51.052;6.982;2022-11-24T15:56:06;15.00;99.90
16243;DHT22;11719;51.052;6.982;2022-11-24T15:58:35;15.10;99.90
16243;DHT22;11719;51.052;6.982;2022-11-24T16:01:01;14.90;99.90
16243;DHT22;11719;51.052;6.982;2022-11-24T16:03:26;14.80;99.90
16243;DHT22;11719;51.052;6.982;2022-11-24T16:05:54;14.80;99.90
16243;DHT22;11719;51.052;6.982;2022-11-24T16:08:20;14.90;99.90
16243;DHT22;11719;51.052;6.982;2022-11-24T16:10:46;15.00;99.90
16243;DHT22;11719;51.052;6.982;2022-11-24T16:13:12;15.00;99.90
16243;DHT22;11719;51.052;6.982;2022-11-24T16:15:38;14.90;99.90
16243;DHT22;11719;51.052;6.982;2022-11-24T16:18:05;14.80;99.90
16243;DHT22;11719;51.052;6.982;2022-11-24T16:20:34;14.70;99.90
16243;DHT22;11719;51.052;6.982;2022-11-24T16:23:04;14.80;99.90
16243;DHT22;11719;51.052;6.982;2022-11-24T16:25:31;14.80;99.90
16243;DHT22;11719;51.052;6.982;2022-11-24T16:27:57;15.00;99.90
16243;DHT22;11719;51.052;6.982;2022-11-24T16:30:23;15.00;99.90
16243;DHT22;11719;51.052;6.982;2022-11-24T16:32:49;14.90;99.90
16243;DHT22;11719;51.052;6.982;2022-11-24T16:35:14;14.90;99.90
16243;DHT22;11719;51.052;6.982;2022-11-24T16:37:40;14.80;99.90
16243;DHT22;11719;51.052;6.982;2022-11-24T16:40:06;14.70;99.90
16243;DHT22;11719;51.052;6.982;2022-11-24T16:42:33;14.50;99.90
16243;DHT22;11719;51.052;6.982;2022-11-24T16:44:58;14.70;99.90
16243;DHT22;11719;51.052;6.982;2022-11-24T16:47:24;14.70;99.90
16243;DHT22;11719;51.052;6.982;2022-11-24T16:49:50;14.60;99.90
16243;DHT22;11719;51.052;6.982;2022-11-24T16:52:15;14.50;99.90
16243;DHT22;11719;51.052;6.982;2022-11-24T16:54:42;14.60;99.90
16243;DHT22;11719;51.052;6.982;2022-11-24T16:57:07;14.50;99.90
16243;DHT22;11719;51.052;6.982;2022-11-24T16:59:36;14.40;99.90
16243;DHT22;11719;51.052;6.982;2022-11-24T17:02:02;14.40;99.90
16243;DHT22;11719;51.052;6.982;2022-11-24T17:04:27;14.40;99.90
16243;DHT22;11719;51.052;6.982;2022-11-24T17:06:53;14.40;99.90
16243;DHT22;11719;51.052;6.982;2022-11-24T17:09:19;14.30;99.90
16243;DHT22;11719;51.052;6.982;2022-11-24T17:11:45;14.20;99.90
16243;DHT22;11719;51.052;6.982;2022-11-24T17:14:11;14.10;99.90
16243;DHT22;11719;51.052;6.982;2022-11-24T17:16:37;14.10;99.90
16243;DHT22;11719;51.052;6.982;2022-11-24T17:19:04;14.10;99.90
16243;DHT22;11719;51.052;6.982;2022-11-24T17:21:30;14.00;99.90
16243;DHT22;11719;51.052;6.982;2022-11-24T17:23:59;14.10;99.90
16243;DHT22;11719;51.052;6.982;2022-11-24T17:26:27;14.00;99.90
16243;DHT22;11719;51.052;6.982;2022-11-24T17:28:53;14.10;99.90
16243;DHT22;11719;51.052;6.982;2022-11-24T17:33:47;13.90;99.90
16243;DHT22;11719;51.052;6.982;2022-11-24T17:36:14;13.90;99.90
16243;DHT22;11719;51.052;6.982;2022-11-24T17:38:40;13.80;99.90
16243;DHT22;11719;51.052;6.982;2022-11-24T17:41:06;13.80;99.90
16243;DHT22;11719;51.052;6.982;2022-11-24T17:43:33;13.70;99.90
16243;DHT22;11719;51.052;6.982;2022-11-24T17:46:00;13.70;99.90
16243;DHT22;11719;51.052;6.982;2022-11-24T17:48:28;13.70;99.90
16243;DHT22;11719;51.052;6.982;2022-11-24T17:53:30;13.80;99.90
16243;DHT22;11719;51.052;6.982;2022-11-24T17:55:59;13.80;99.90
16243;DHT22;11719;51.052;6.982;2022-11-24T17:58:30;13.90;99.90
16243;DHT22;11719;51.052;6.982;2022-11-24T18:00:57;13.90;99.90